sensor_id;sensor_type;location;lat;lon;timestamp;pressure;altitude;pressure_sealevel;temperature;humidity
54918;BME280;40818;50.562;7.454;2023-01-27T10:54:59;98387.41;;;0.34;100.00
54918;BME280;40818;50.562;7.454;2023-01-27T11:05:08;98387.00;;;0.64;100.00
54918;BME280;40818;50.562;7.454;2023-01-27T11:15:25;98387.59;;;0.81;100.00
54918;BME280;40818;50.562;7.454;2023-01-27T11:25:35;98385.81;;;0.88;100.00
54918;BME280;40818;50.562;7.454;2023-01-27T11:35:47;98383.06;;;1.00;100.00
54918;BME280;40818;50.562;7.454;2023-01-27T11:45:51;98371.03;;;1.52;100.00
54918;BME280;40818;50.562;7.454;2023-01-27T11:56:02;98364.19;;;1.98;100.00
54918;BME280;40818;50.562;7.454;2023-01-27T12:06:13;98356.09;;;2.56;100.00
54918;BME280;40818;50.562;7.454;2023-01-27T12:16:22;98353.88;;;2.01;100.00
54918;BME280;40818;50.562;7.454;2023-01-27T12:26:30;98340.91;;;1.68;100.00
54918;BME280;40818;50.562;7.454;2023-01-27T12:36:41;98322.28;;;1.60;100.00
54918;BME280;40818;50.562;7.454;2023-01-27T12:46:56;98324.09;;;1.55;100.00
54918;BME280;40818;50.562;7.454;2023-01-27T12:57:04;98313.66;;;1.66;100.00
54918;BME280;40818;50.562;7.454;2023-01-27T13:07:13;98325.69;;;1.61;100.00
54918;BME280;40818;50.562;7.454;2023-01-27T13:17:36;98322.31;;;1.57;100.00
54918;BME280;40818;50.562;7.454;2023-01-27T13:27:40;98321.84;;;1.38;100.00
54918;BME280;40818;50.562;7.454;2023-01-27T13:37:50;98319.13;;;1.46;100.00
54918;BME280;40818;50.562;7.454;2023-01-27T13:47:57;98324.09;;;1.55;100.00
54918;BME280;40818;50.562;7.454;2023-01-27T13:58:09;98323.25;;;1.55;100.00
54918;BME280;40818;50.562;7.454;2023-01-27T14:18:57;98358.22;;;1.54;100.00
54918;BME280;40818;50.562;7.454;2023-01-27T14:29:12;98362.00;;;1.34;100.00
54918;BME280;40818;50.562;7.454;2023-01-27T14:39:27;98372.28;;;1.31;100.00
54918;BME280;40818;50.562;7.454;2023-01-27T14:50:00;98369.88;;;1.22;100.00
54918;BME280;40818;50.562;7.454;2023-01-27T15:00:20;98372.50;;;1.19;100.00
54918;BME280;40818;50.562;7.454;2023-01-27T15:10:28;98390.47;;;1.16;100.00
54918;BME280;40818;50.562;7.454;2023-01-27T15:21:04;98394.03;;;1.06;100.00
54918;BME280;40818;50.562;7.454;2023-01-27T15:31:24;98407.59;;;1.11;100.00
54918;BME280;40818;50.562;7.454;2023-01-27T15:41:30;98410.97;;;1.11;100.00
54918;BME280;40818;50.562;7.454;2023-01-27T15:51:35;98434.94;;;1.06;100.00
54918;BME280;40818;50.562;7.454;2023-01-27T16:01:41;98438.41;;;1.03;100.00
54918;BME280;40818;50.562;7.454;2023-01-27T16:11:57;98440.97;;;1.01;100.00
54918;BME280;40818;50.562;7.454;2023-01-27T16:22:05;98447.03;;;0.94;100.00
54918;BME280;40818;50.562;7.454;2023-01-27T16:32:16;98456.47;;;0.92;100.00
54918;BME280;40818;50.562;7.454;2023-01-27T16:42:28;98459.13;;;0.84;100.00
54918;BME280;40818;50.562;7.454;2023-01-27T16:52:33;98476.22;;;0.82;100.00
54918;BME280;40818;50.562;7.454;2023-01-27T17:02:41;98482.00;;;0.94;100.00
54918;BME280;40818;50.562;7.454;2023-01-27T17:12:49;98489.78;;;0.86;100.00
54918;BME280;40818;50.562;7.454;2023-01-27T17:22:55;98482.31;;;0.72;100.00
54918;BME280;40818;50.562;7.454;2023-01-27T17:33:00;98489.09;;;0.75;100.00
54918;BME280;40818;50.562;7.454;2023-01-27T17:43:23;98502.91;;;0.61;100.00
54918;BME280;40818;50.562;7.454;2023-01-27T17:53:27;98513.09;;;0.64;100.00
54918;BME280;40818;50.562;7.454;2023-01-27T18:03:34;98509.03;;;0.48;100.00
54918;BME280;40818;50.562;7.454;2023-01-27T18:13:39;98524.41;;;0.43;100.00
54918;BME280;40818;50.562;7.454;2023-01-27T18:23:47;98517.63;;;0.41;100.00
54918;BME280;40818;50.562;7.454;2023-01-27T18:33:57;98535.47;;;0.44;100.00
54918;BME280;40818;50.562;7.454;2023-01-27T18:44:04;98541.47;;;0.40;100.00
54918;BME280;40818;50.562;7.454;2023-01-27T18:54:09;98548.28;;;0.41;100.00
54918;BME280;40818;50.562;7.454;2023-01-27T19:04:15;98548.28;;;0.41;100.00
54918;BME280;40818;50.562;7.454;2023-01-27T19:14:19;98550.16;;;0.25;100.00
54918;BME280;40818;50.562;7.454;2023-01-27T19:24:25;98546.69;;;0.29;100.00
54918;BME280;40818;50.562;7.454;2023-01-27T19:34:29;98547.63;;;0.22;100.00
54918;BME280;40818;50.562;7.454;2023-01-27T19:44:35;98559.56;;;0.23;100.00
54918;BME280;40818;50.562;7.454;2023-01-27T19:54:38;98564.69;;;0.18;100.00
